Time;durP1;ratioP1;P1;durP2;ratioP2;P2;SDS_P1;SDS_P2;PMS_P1;PMS_P2;Temp;Humidity;BMP_temperature;BMP_pressure;BME280_temperature;BME280_humidity;BME280_pressure;Samples;Min_cycle;Max_cycle;Signal;HPM_P1;HPM_P2
2022/02/07 00:00:30;;;;;;;1.10;0.70;;;5.10;99.90;;;;;;5091265;28;20470;-40
2022/02/07 00:03:10;;;;;;;1.20;0.70;;;5.10;99.90;;;;;;5090721;28;20438;-39
2022/02/07 00:05:37;;;;;;;5.70;1.07;;;5.00;99.90;;;;;;5090838;28;20467;-38
2022/02/07 00:08:05;;;;;;;0.80;0.60;;;4.80;99.90;;;;;;5091019;28;20470;-38
2022/02/07 00:10:32;;;;;;;2.40;0.80;;;4.80;99.90;;;;;;5091571;28;20546;-41
2022/02/07 00:13:00;;;;;;;1.00;0.63;;;4.80;99.90;;;;;;5090814;28;20454;-41
2022/02/07 00:15:27;;;;;;;0.70;0.50;;;4.60;99.90;;;;;;5091784;28;20501;-40
2022/02/07 00:17:54;;;;;;;0.90;0.70;;;4.50;99.90;;;;;;5091368;28;20447;-41
2022/02/07 00:20:23;;;;;;;1.43;0.60;;;4.40;99.90;;;;;;5091521;28;21036;-42
2022/02/07 00:22:51;;;;;;;0.70;0.47;;;4.30;99.90;;;;;;5091098;28;20756;-41
2022/02/07 00:25:19;;;;;;;1.90;0.80;;;4.20;99.90;;;;;;5091434;28;20611;-39
2022/02/07 00:27:49;;;;;;;0.90;0.50;;;4.10;99.90;;;;;;5091268;28;20478;-39
2022/02/07 00:30:20;;;;;;;0.70;0.50;;;4.00;99.90;;;;;;5092231;28;20442;-40
2022/02/07 00:32:48;;;;;;;0.70;0.50;;;3.90;99.90;;;;;;5091356;28;20475;-39
2022/02/07 00:35:17;;;;;;;0.70;0.50;;;3.80;99.90;;;;;;5092114;28;20823;-42
2022/02/07 00:37:45;;;;;;;0.70;0.50;;;3.80;99.90;;;;;;5091522;28;20489;-36
2022/02/07 00:40:43;;;;;;;0.80;0.50;;;3.80;99.90;;;;;;5092121;28;20445;-42
2022/02/07 00:43:27;;;;;;;0.70;0.50;;;3.80;99.90;;;;;;5091388;28;20525;-40
2022/02/07 00:45:58;;;;;;;1.37;0.63;;;3.80;99.90;;;;;;5092254;28;20453;-38
2022/02/07 00:48:28;;;;;;;1.10;0.73;;;3.90;99.90;;;;;;5093779;28;20466;-41
2022/02/07 00:50:56;;;;;;;0.80;0.60;;;3.90;99.90;;;;;;5095878;28;20510;-38
2022/02/07 00:53:23;;;;;;;1.80;0.60;;;3.90;99.90;;;;;;5095737;28;20458;-41
2022/02/07 00:55:51;;;;;;;0.90;0.73;;;4.00;99.90;;;;;;5095418;28;20494;-42
2022/02/07 00:58:17;;;;;;;0.70;0.50;;;3.90;99.90;;;;;;5095725;28;20439;-40
2022/02/07 01:00:44;;;;;;;0.80;0.60;;;3.90;99.90;;;;;;5096176;28;20505;-40
2022/02/07 01:03:12;;;;;;;1.07;0.93;;;3.90;99.90;;;;;;5095666;28;20466;-41
2022/02/07 01:05:40;;;;;;;0.70;0.50;;;3.90;99.90;;;;;;5095096;28;20445;-41
2022/02/07 01:08:08;;;;;;;1.10;0.60;;;3.90;99.90;;;;;;5095519;28;20493;-40
2022/02/07 01:10:42;;;;;;;0.70;0.50;;;3.90;99.90;;;;;;5095973;28;20466;-40
2022/02/07 01:13:17;;;;;;;1.20;0.60;;;3.90;99.90;;;;;;5096752;28;20533;-37
2022/02/07 01:15:53;;;;;;;0.90;0.70;;;3.90;99.90;;;;;;5096459;28;20461;-40
2022/02/07 01:45:56;;;;;;;1.03;0.87;;;4.00;99.90;;;;;;5095686;28;20443;-41
2022/02/07 01:49:18;;;;;;;0.70;0.50;;;3.90;99.90;;;;;;5094403;28;20478;-42
2022/02/07 01:52:13;;;;;;;4.73;1.10;;;3.80;99.90;;;;;;5094368;28;20476;-40
2022/02/07 01:54:43;;;;;;;1.97;0.80;;;3.90;99.90;;;;;;5094405;28;20531;-39
2022/02/07 01:57:12;;;;;;;3.73;1.37;;;3.80;99.90;;;;;;5093877;28;20503;-40
2022/02/07 01:59:43;;;;;;;1.23;0.80;;;3.80;99.90;;;;;;5094199;28;20461;-41
2022/02/07 02:02:10;;;;;;;1.23;0.90;;;3.80;99.90;;;;;;5094179;28;20492;-39
2022/02/07 02:04:38;;;;;;;0.90;0.67;;;3.80;99.90;;;;;;5095159;28;20427;-38
2022/02/07 02:07:07;;;;;;;1.07;0.70;;;3.80;99.90;;;;;;5095267;28;20480;-40
2022/02/07 02:09:34;;;;;;;1.47;0.60;;;3.80;99.90;;;;;;5095380;28;20492;-41
2022/02/07 02:12:02;;;;;;;0.70;0.50;;;3.80;99.90;;;;;;5095109;28;20457;-36
2022/02/07 02:14:48;;;;;;;0.80;0.60;;;3.80;99.90;;;;;;5095280;28;20462;-40
2022/02/07 02:17:40;;;;;;;3.00;1.00;;;3.80;99.90;;;;;;5094979;28;20446;-40
2022/02/07 02:34:38;;;;;;;0.80;0.60;;;3.60;99.90;;;;;;5095016;28;20473;-39
2022/02/07 02:37:12;;;;;;;0.80;0.60;;;3.60;99.90;;;;;;5094919;28;20829;-39
2022/02/07 02:45:31;;;;;;;1.10;0.70;;;3.60;99.90;;;;;;5094482;28;20465;-40
2022/02/07 02:48:05;;;;;;;0.90;0.80;;;3.70;99.90;;;;;;5093699;28;20514;-40
2022/02/07 02:50:34;;;;;;;0.80;0.70;;;3.60;99.90;;;;;;5094104;28;20490;-39
2022/02/07 02:53:03;;;;;;;1.67;0.67;;;3.70;99.90;;;;;;5094315;28;20497;-40
2022/02/07 02:55:32;;;;;;;1.00;0.90;;;3.70;99.90;;;;;;5095089;28;20450;-39
2022/02/07 02:57:59;;;;;;;2.77;0.80;;;3.80;99.90;;;;;;5093588;28;20462;-41
2022/02/07 03:00:29;;;;;;;7.33;0.90;;;3.80;99.90;;;;;;5093822;28;20446;-41
2022/02/07 03:02:58;;;;;;;1.63;0.80;;;3.80;99.90;;;;;;5093348;28;20474;-41
2022/02/07 03:05:26;;;;;;;3.20;0.80;;;3.80;99.90;;;;;;5093152;28;20439;-40
2022/02/07 03:07:54;;;;;;;4.80;0.80;;;3.80;99.90;;;;;;5093214;28;20536;-40
2022/02/07 03:10:28;;;;;;;4.50;1.10;;;3.80;99.90;;;;;;5091678;28;20482;-43
2022/02/07 03:13:12;;;;;;;1.10;0.90;;;3.80;99.90;;;;;;5093046;28;20470;-39
2022/02/07 03:18:25;;;;;;;1.90;0.93;;;3.80;99.90;;;;;;5093172;28;20496;-41
2022/02/07 03:20:52;;;;;;;2.17;0.63;;;3.80;99.90;;;;;;5092605;28;20528;-41
2022/02/07 03:23:20;;;;;;;4.53;1.33;;;3.80;99.90;;;;;;5093427;28;20459;-39
2022/02/07 03:25:47;;;;;;;1.10;0.50;;;3.80;99.90;;;;;;5093330;28;20461;-46
2022/02/07 03:28:16;;;;;;;2.60;1.00;;;3.80;99.90;;;;;;5093440;28;20466;-42
2022/02/07 03:30:42;;;;;;;0.80;0.60;;;3.80;99.90;;;;;;5093520;28;20435;-41
2022/02/07 03:33:14;;;;;;;1.33;0.60;;;3.70;99.90;;;;;;5092801;28;20458;-39
2022/02/07 03:35:43;;;;;;;4.47;2.07;;;3.80;99.90;;;;;;5092609;28;20419;-39
2022/02/07 03:38:10;;;;;;;2.73;0.70;;;3.80;99.90;;;;;;5092032;28;20555;-39
2022/02/07 03:40:38;;;;;;;4.90;1.27;;;3.80;99.90;;;;;;5092116;28;20439;-37
2022/02/07 03:43:05;;;;;;;1.30;0.67;;;3.80;99.90;;;;;;5092304;28;20435;-41
2022/02/07 03:45:33;;;;;;;3.57;1.57;;;3.80;99.90;;;;;;5092584;28;20485;-40
2022/02/07 03:48:00;;;;;;;1.10;0.80;;;3.90;99.90;;;;;;5092279;28;20443;-39
2022/02/07 03:50:28;;;;;;;2.07;0.87;;;3.90;99.90;;;;;;5092690;28;20455;-44
2022/02/07 03:52:55;;;;;;;2.40;1.00;;;3.90;99.90;;;;;;5093238;28;20501;-39
2022/02/07 03:55:22;;;;;;;2.13;0.93;;;3.80;99.90;;;;;;5093592;28;20466;-40
2022/02/07 03:57:48;;;;;;;2.10;0.87;;;3.80;99.90;;;;;;5093423;28;20434;-41
2022/02/07 04:00:16;;;;;;;1.17;0.73;;;3.70;99.90;;;;;;5093439;28;21004;-39
2022/02/07 04:02:49;;;;;;;4.67;1.37;;;3.70;99.90;;;;;;5092500;28;20473;-42
2022/02/07 04:07:56;;;;;;;2.90;0.90;;;3.60;99.90;;;;;;5092376;28;20495;-37
2022/02/07 04:10:24;;;;;;;1.00;0.90;;;3.60;99.90;;;;;;5093101;28;20509;-39
2022/02/07 04:12:56;;;;;;;1.23;0.60;;;3.50;99.90;;;;;;5093696;28;20447;-40
2022/02/07 04:15:23;;;;;;;1.03;0.80;;;3.40;99.90;;;;;;5093901;28;20441;-38
2022/02/07 04:17:56;;;;;;;1.73;1.00;;;3.40;99.90;;;;;;5094687;28;20430;-40
2022/02/07 04:20:32;;;;;;;1.20;0.80;;;3.40;99.90;;;;;;5094351;28;20434;-41
2022/02/07 04:23:09;;;;;;;2.07;1.17;;;3.40;99.90;;;;;;5091973;28;20431;-42
2022/02/07 04:25:35;;;;;;;1.50;0.93;;;3.30;99.90;;;;;;5092603;28;20486;-39
2022/02/07 04:28:02;;;;;;;2.03;1.00;;;3.20;99.90;;;;;;5093059;28;20475;-42
2022/02/07 04:30:29;;;;;;;0.80;0.60;;;3.10;99.90;;;;;;5093224;28;20487;-41
2022/02/07 04:32:57;;;;;;;1.27;0.73;;;3.20;99.90;;;;;;5092592;28;20450;-43
2022/02/07 04:35:24;;;;;;;1.53;0.60;;;3.20;99.90;;;;;;5091501;28;20439;-37
2022/02/07 04:37:58;;;;;;;1.10;0.93;;;3.30;99.90;;;;;;5092950;28;20445;-41
2022/02/07 04:40:24;;;;;;;6.80;0.80;;;3.30;99.90;;;;;;5092522;28;20428;-38
2022/02/07 04:42:52;;;;;;;1.50;0.77;;;3.30;99.90;;;;;;5092996;28;20447;-41
2022/02/07 04:45:31;;;;;;;1.73;0.90;;;3.30;99.90;;;;;;5093294;28;20477;-40
2022/02/07 04:48:23;;;;;;;4.47;1.10;;;3.30;99.90;;;;;;5092249;28;20485;-38
2022/02/07 04:51:07;;;;;;;0.90;0.60;;;3.30;99.90;;;;;;5092301;28;20470;-38
2022/02/07 04:53:51;;;;;;;4.87;1.33;;;3.20;99.90;;;;;;5091920;28;20503;-40
2022/02/07 04:57:05;;;;;;;2.80;1.43;;;3.30;99.90;;;;;;5092263;28;20483;-41
2022/02/07 04:59:09;;;;;;;2.00;0.80;;;3.40;99.90;;;;;;5091342;28;20546;-41
2022/02/07 05:01:46;;;;;;;2.20;0.73;;;3.40;99.90;;;;;;5092272;28;20465;-41
2022/02/07 05:04:25;;;;;;;1.30;1.00;;;3.40;99.90;;;;;;5091551;28;20520;-41
2022/02/07 05:15:05;;;;;;;2.20;0.90;;;3.40;99.90;;;;;;5092893;28;20766;-40
2022/02/07 05:17:35;;;;;;;1.40;0.60;;;3.40;99.90;;;;;;5092931;28;20530;-41
2022/02/07 05:20:04;;;;;;;1.20;0.73;;;3.50;99.90;;;;;;5093171;28;20494;-40
2022/02/07 05:22:31;;;;;;;2.17;0.60;;;3.50;99.90;;;;;;5093410;28;20473;-38
2022/02/07 05:24:58;;;;;;;0.80;0.50;;;3.50;99.90;;;;;;5092373;28;20474;-40
2022/02/07 05:27:24;;;;;;;2.53;0.80;;;3.50;99.90;;;;;;5091605;28;20451;-42
2022/02/07 05:29:52;;;;;;;0.80;0.70;;;3.50;99.90;;;;;;5091423;28;20486;-40
2022/02/07 05:32:18;;;;;;;2.90;0.80;;;3.50;99.90;;;;;;5092062;28;20451;-40
2022/02/07 05:34:45;;;;;;;1.00;0.63;;;3.50;99.90;;;;;;5094555;28;20466;-40
2022/02/07 05:37:15;;;;;;;6.73;1.00;;;3.50;99.90;;;;;;5096200;28;20469;-41
2022/02/07 05:39:44;;;;;;;1.20;0.80;;;3.50;99.90;;;;;;5095488;28;20467;-42
2022/02/07 05:42:11;;;;;;;3.27;1.07;;;3.50;99.90;;;;;;5095933;28;20469;-40
2022/02/07 05:44:44;;;;;;;2.17;1.13;;;3.50;99.90;;;;;;5096801;28;20459;-40
2022/02/07 05:47:11;;;;;;;1.07;0.90;;;3.60;99.90;;;;;;5096432;28;20454;-41
2022/02/07 05:49:38;;;;;;;0.97;0.70;;;3.50;99.90;;;;;;5095742;28;20486;-40
2022/02/07 05:52:05;;;;;;;5.53;0.80;;;3.40;99.90;;;;;;5095892;28;20442;-41
2022/02/07 05:54:33;;;;;;;4.20;0.90;;;3.50;99.90;;;;;;5094364;28;20467;-40
2022/02/07 05:57:00;;;;;;;4.47;0.73;;;3.50;99.90;;;;;;5095217;28;20439;-41
2022/02/07 05:59:27;;;;;;;8.43;1.53;;;3.60;99.90;;;;;;5095289;28;20871;-41
2022/02/07 06:01:54;;;;;;;3.17;1.00;;;3.60;99.90;;;;;;5095429;28;20444;-38
2022/02/07 06:04:20;;;;;;;2.80;0.80;;;3.60;99.90;;;;;;5095263;28;20461;-38
2022/02/07 06:06:47;;;;;;;1.03;0.73;;;3.70;99.90;;;;;;5094953;28;20465;-43
2022/02/07 06:09:13;;;;;;;1.10;0.70;;;3.60;99.90;;;;;;5094163;28;21002;-41
2022/02/07 06:11:42;;;;;;;1.30;0.90;;;3.70;99.90;;;;;;5095148;28;20426;-42
2022/02/07 06:14:08;;;;;;;3.00;1.13;;;3.70;99.90;;;;;;5096245;28;20438;-37
2022/02/07 06:16:35;;;;;;;1.20;0.90;;;3.80;99.90;;;;;;5096017;28;20500;-41
2022/02/07 06:19:02;;;;;;;2.93;1.23;;;3.80;99.90;;;;;;5095191;28;20490;-40
2022/02/07 06:21:32;;;;;;;1.10;0.60;;;3.80;99.90;;;;;;5095677;28;20454;-40
2022/02/07 06:23:58;;;;;;;1.90;0.97;;;3.80;99.90;;;;;;5096615;28;20447;-39
2022/02/07 06:26:25;;;;;;;5.67;1.30;;;3.70;99.90;;;;;;5095785;28;20459;-40
2022/02/07 06:28:53;;;;;;;2.53;0.83;;;3.70;99.90;;;;;;5094276;28;20469;-39
2022/02/07 06:31:20;;;;;;;3.13;1.07;;;3.70;99.90;;;;;;5094768;28;20486;-40
2022/02/07 06:33:47;;;;;;;2.30;0.90;;;3.80;99.90;;;;;;5094971;28;20458;-40
2022/02/07 06:36:14;;;;;;;2.03;1.00;;;3.80;99.90;;;;;;5094111;28;20471;-39
2022/02/07 06:38:41;;;;;;;2.60;0.80;;;3.80;99.90;;;;;;5094545;28;20447;-41
2022/02/07 06:41:08;;;;;;;44.03;1.73;;;3.70;99.90;;;;;;5094483;28;20470;-40
2022/02/07 06:43:35;;;;;;;1.43;0.90;;;3.70;99.90;;;;;;5094911;28;20459;-39
2022/02/07 06:46:03;;;;;;;2.50;0.80;;;3.70;99.90;;;;;;5084254;28;20494;-39
2022/02/07 06:48:29;;;;;;;5.63;1.00;;;3.70;99.90;;;;;;5074104;28;20474;-39
2022/02/07 06:50:56;;;;;;;2.20;0.80;;;3.70;99.90;;;;;;5081547;28;20490;-40
2022/02/07 06:53:23;;;;;;;3.07;1.70;;;3.80;99.90;;;;;;5073874;28;20755;-40
2022/02/07 06:55:50;;;;;;;2.67;2.07;;;3.80;99.90;;;;;;5073752;28;20467;-37
2022/02/07 06:58:17;;;;;;;6.97;1.67;;;3.80;99.90;;;;;;5075278;28;20463;-38
2022/02/07 07:00:43;;;;;;;0.83;0.60;;;3.80;99.90;;;;;;5100196;28;20426;-42
2022/02/07 07:03:17;;;;;;;12.80;1.83;;;3.90;99.90;;;;;;5096583;28;20431;-37
2022/02/07 07:05:47;;;;;;;6.70;0.80;;;3.90;99.90;;;;;;5096598;28;20427;-38
2022/02/07 07:08:14;;;;;;;1.53;0.90;;;4.00;99.90;;;;;;5096361;28;20462;-42
2022/02/07 07:10:41;;;;;;;1.10;0.77;;;4.00;99.90;;;;;;5096510;28;20482;-38
2022/02/07 07:13:11;;;;;;;7.00;1.23;;;4.10;99.90;;;;;;5099705;28;20448;-37
2022/02/07 07:15:41;;;;;;;5.13;0.80;;;4.10;99.90;;;;;;5117458;28;20437;-38
2022/02/07 07:18:08;;;;;;;5.20;1.33;;;4.10;99.90;;;;;;5116775;28;20479;-38
2022/02/07 07:20:37;;;;;;;13.17;1.53;;;4.20;99.90;;;;;;5116713;28;20492;-35
2022/02/07 07:23:04;;;;;;;3.10;0.97;;;4.20;99.90;;;;;;5116849;28;20459;-37
2022/02/07 07:25:31;;;;;;;3.40;0.83;;;4.30;99.90;;;;;;5104381;28;20431;-35
2022/02/07 07:28:01;;;;;;;1.00;0.90;;;4.20;99.90;;;;;;5095894;28;20451;-39
2022/02/07 07:30:32;;;;;;;2.20;1.00;;;4.30;99.90;;;;;;5096445;28;20463;-35
2022/02/07 07:33:03;;;;;;;1.30;0.80;;;4.30;99.90;;;;;;5075814;28;20444;-53
2022/02/07 07:35:30;;;;;;;3.70;1.00;;;4.30;99.90;;;;;;5075646;28;20464;-52
2022/02/07 07:37:58;;;;;;;2.70;1.33;;;4.30;99.90;;;;;;5075801;28;20440;-48
2022/02/07 07:40:25;;;;;;;2.60;0.80;;;4.40;99.90;;;;;;5075670;28;20460;-50
2022/02/07 07:42:56;;;;;;;2.70;1.47;;;4.30;99.90;;;;;;5075705;28;20430;-59
2022/02/07 07:45:30;;;;;;;4.70;1.10;;;4.30;99.90;;;;;;5076001;28;20478;-56
2022/02/07 07:48:00;;;;;;;4.27;1.20;;;4.30;99.90;;;;;;5075537;28;20527;-55
2022/02/07 07:50:31;;;;;;;1.57;0.90;;;4.40;99.90;;;;;;5076052;28;20475;-54
2022/02/07 07:53:13;;;;;;;1.60;1.00;;;4.40;99.90;;;;;;5076021;28;20854;-54
2022/02/07 08:01:41;;;;;;;4.47;1.13;;;4.40;99.90;;;;;;5075992;28;20415;-56
2022/02/07 08:04:10;;;;;;;0.80;0.67;;;4.40;99.90;;;;;;5076150;28;20468;-54
2022/02/07 08:06:43;;;;;;;1.87;0.80;;;4.40;99.90;;;;;;5076008;28;20443;-53
2022/02/07 08:09:33;;;;;;;2.03;1.30;;;4.50;99.90;;;;;;5076326;28;20869;-52
2022/02/07 08:12:01;;;;;;;1.40;1.30;;;4.50;99.90;;;;;;5075868;28;20920;-54
2022/02/07 08:14:29;;;;;;;1.00;0.60;;;4.50;99.90;;;;;;5076176;28;20503;-58
2022/02/07 08:16:56;;;;;;;2.10;1.90;;;4.60;99.90;;;;;;5075831;28;20443;-50
2022/02/07 08:19:25;;;;;;;2.47;1.53;;;4.60;99.90;;;;;;5076173;28;20436;-54
2022/02/07 08:21:51;;;;;;;2.47;1.17;;;4.70;99.90;;;;;;5075912;28;20494;-53
2022/02/07 08:24:21;;;;;;;3.63;1.00;;;4.70;99.90;;;;;;5076015;28;20440;-55
2022/02/07 08:26:49;;;;;;;6.23;1.53;;;4.70;99.90;;;;;;5075580;28;20651;-52
2022/02/07 08:29:16;;;;;;;9.93;1.30;;;4.70;99.90;;;;;;5075714;28;20459;-56
2022/02/07 08:31:42;;;;;;;5.87;1.23;;;4.60;99.90;;;;;;5075874;28;20485;-55
2022/02/07 08:34:09;;;;;;;1.57;0.90;;;4.60;99.90;;;;;;5075998;28;20424;-52
2022/02/07 08:36:35;;;;;;;2.27;1.07;;;4.70;99.90;;;;;;5075717;28;20428;-54
2022/02/07 08:39:03;;;;;;;1.20;0.90;;;4.60;99.90;;;;;;5076120;28;20440;-50
2022/02/07 08:41:32;;;;;;;7.60;1.23;;;4.60;99.90;;;;;;5076193;28;20460;-56
2022/02/07 08:43:59;;;;;;;4.20;1.60;;;4.60;99.90;;;;;;5076431;28;20486;-49
2022/02/07 08:46:25;;;;;;;8.33;1.03;;;4.60;99.90;;;;;;5076065;28;20439;-50
2022/02/07 08:48:52;;;;;;;9.90;1.60;;;4.60;99.90;;;;;;5076375;28;20435;-51
2022/02/07 08:51:19;;;;;;;1.67;0.80;;;4.70;99.90;;;;;;5075871;28;20543;-54
2022/02/07 08:53:48;;;;;;;8.23;1.17;;;4.70;99.90;;;;;;5075790;28;20527;-50
2022/02/07 08:56:16;;;;;;;5.50;2.23;;;4.70;99.90;;;;;;5076165;28;20520;-55
2022/02/07 08:58:46;;;;;;;4.37;1.30;;;4.80;99.90;;;;;;5075396;28;20527;-56
2022/02/07 09:01:17;;;;;;;0.90;0.73;;;4.80;99.90;;;;;;5075246;28;20430;-55
2022/02/07 09:06:35;;;;;;;3.13;1.10;;;5.00;99.90;;;;;;5075220;28;20524;-54
2022/02/07 09:09:08;;;;;;;4.23;1.30;;;5.10;99.90;;;;;;5076824;28;20435;-55
2022/02/07 09:11:38;;;;;;;4.23;1.20;;;5.20;99.90;;;;;;5079069;28;20448;-54
2022/02/07 09:14:12;;;;;;;4.30;1.80;;;5.20;99.90;;;;;;5079086;28;20452;-53
2022/02/07 09:16:40;;;;;;;6.53;1.60;;;5.20;99.90;;;;;;5078690;28;20467;-59
2022/02/07 09:19:08;;;;;;;2.80;0.93;;;5.20;99.90;;;;;;5078795;28;20424;-57
2022/02/07 09:21:36;;;;;;;1.47;0.80;;;5.20;99.90;;;;;;5079041;28;20452;-58
2022/02/07 09:24:04;;;;;;;3.73;1.20;;;5.20;99.90;;;;;;5079182;28;20447;-56
2022/02/07 09:26:31;;;;;;;2.93;1.13;;;5.20;99.90;;;;;;5078901;28;20444;-52
2022/02/07 09:28:58;;;;;;;2.83;1.17;;;5.20;99.90;;;;;;5078263;28;20427;-54
2022/02/07 09:31:27;;;;;;;2.63;0.73;;;5.20;99.90;;;;;;5079030;28;20510;-55
2022/02/07 09:33:53;;;;;;;6.10;1.10;;;5.20;99.90;;;;;;5079331;28;20445;-57
2022/02/07 09:36:21;;;;;;;2.07;0.77;;;5.20;99.90;;;;;;5079249;28;20456;-57
2022/02/07 09:38:48;;;;;;;1.97;1.30;;;5.30;99.90;;;;;;5078783;28;20472;-54
2022/02/07 09:41:17;;;;;;;3.73;0.90;;;5.30;99.90;;;;;;5079074;28;20436;-56
2022/02/07 09:43:46;;;;;;;1.30;1.00;;;5.30;99.90;;;;;;5079331;28;20476;-55
2022/02/07 09:46:20;;;;;;;1.50;0.90;;;5.40;99.90;;;;;;5078879;28;20512;-54
2022/02/07 09:48:51;;;;;;;1.77;1.07;;;5.40;99.90;;;;;;5078944;28;20468;-59
2022/02/07 09:51:18;;;;;;;1.83;1.70;;;5.50;99.90;;;;;;5078866;28;20530;-55
2022/02/07 09:53:45;;;;;;;2.83;1.77;;;5.60;99.90;;;;;;5078353;28;20486;-55
2022/02/07 09:56:12;;;;;;;3.70;1.10;;;5.60;99.90;;;;;;5078372;28;20458;-55
2022/02/07 09:58:40;;;;;;;5.63;1.30;;;5.60;99.90;;;;;;5078901;28;20499;-59
2022/02/07 10:01:11;;;;;;;6.40;2.00;;;5.60;99.90;;;;;;5078338;28;20490;-58
2022/02/07 10:03:50;;;;;;;1.40;1.00;;;5.60;99.90;;;;;;5079005;28;20412;-61
2022/02/07 10:06:32;;;;;;;2.03;1.00;;;5.70;99.90;;;;;;5078478;28;20449;-60
2022/02/07 10:09:15;;;;;;;6.03;1.60;;;6.20;99.90;;;;;;5078484;28;20448;-53
2022/02/07 10:11:58;;;;;;;3.90;2.13;;;6.70;99.90;;;;;;5078242;28;20454;-61
2022/02/07 10:14:30;;;;;;;3.33;1.10;;;6.80;99.90;;;;;;5077722;28;20470;-58
2022/02/07 10:17:17;;;;;;;2.20;0.90;;;6.80;99.90;;;;;;5078044;28;20404;-54
2022/02/07 10:19:57;;;;;;;1.83;1.17;;;6.70;99.90;;;;;;5076998;28;20474;-60
2022/02/07 10:23:07;;;;;;;2.17;1.20;;;6.70;99.90;;;;;;5078072;28;20447;-56
2022/02/07 10:40:20;;;;;;;4.70;1.27;;;6.90;99.90;;;;;;5078023;28;20429;-55
2022/02/07 10:43:11;;;;;;;3.90;1.80;;;6.80;99.90;;;;;;5078062;28;20428;-60
2022/02/07 10:45:59;;;;;;;3.37;1.43;;;6.70;99.90;;;;;;5077461;28;20473;-57
2022/02/07 10:48:40;;;;;;;10.43;1.00;;;6.70;99.90;;;;;;5078087;28;20438;-55
2022/02/07 10:51:09;;;;;;;3.07;1.40;;;6.80;99.90;;;;;;5076241;28;20490;-51
2022/02/07 10:53:37;;;;;;;2.60;1.07;;;7.20;99.90;;;;;;5075009;28;20438;-50
2022/02/07 10:56:14;;;;;;;5.83;1.07;;;7.30;99.90;;;;;;5073481;28;20457;-54
2022/02/07 10:58:42;;;;;;;4.93;1.27;;;7.40;99.90;;;;;;5066348;28;20426;-55
2022/02/07 11:01:14;;;;;;;8.77;2.13;;;7.60;99.90;;;;;;5065717;28;20518;-52
2022/02/07 11:03:46;;;;;;;7.03;1.53;;;8.00;99.90;;;;;;5066442;28;20699;-54
2022/02/07 11:06:16;;;;;;;1.70;1.27;;;7.80;99.90;;;;;;5067036;28;20827;-52
2022/02/07 11:08:53;;;;;;;4.67;1.70;;;7.70;99.90;;;;;;5066287;28;20999;-53
2022/02/07 11:14:24;;;;;;;5.13;1.73;;;7.50;99.90;;;;;;5045956;28;20901;-53
2022/02/07 11:17:05;;;;;;;9.43;1.20;;;7.50;99.90;;;;;;5067438;28;20462;-50
2022/02/07 11:22:39;;;;;;;7.90;1.20;;;7.30;99.90;;;;;;5063931;28;20465;-52
2022/02/07 11:28:14;;;;;;;4.00;0.93;;;7.20;99.90;;;;;;5066901;28;20548;-56
2022/02/07 11:30:47;;;;;;;8.10;1.87;;;7.20;99.90;;;;;;5066700;28;20469;-52
2022/02/07 11:33:49;;;;;;;11.20;2.30;;;7.20;99.90;;;;;;5067150;28;20477;-51
2022/02/07 11:36:23;;;;;;;3.43;2.90;;;7.20;99.90;;;;;;5067950;28;20458;-55
2022/02/07 11:39:10;;;;;;;3.07;1.37;;;7.20;99.90;;;;;;5067493;28;20431;-52
2022/02/07 11:42:12;;;;;;;2.47;1.23;;;7.20;99.90;;;;;;5067693;28;20476;-53
2022/02/07 11:45:22;;;;;;;10.80;2.37;;;7.20;99.90;;;;;;5066928;28;20431;-54
2022/02/07 11:47:50;;;;;;;9.67;1.20;;;7.30;99.90;;;;;;5067834;28;20438;-56
2022/02/07 11:50:21;;;;;;;3.80;1.47;;;7.20;99.90;;;;;;5067158;28;20441;-55
2022/02/07 11:52:51;;;;;;;9.50;0.90;;;7.30;99.90;;;;;;5067414;28;20501;-53
2022/02/07 11:55:20;;;;;;;5.47;2.20;;;7.10;99.90;;;;;;5068347;28;20472;-54
2022/02/07 11:57:55;;;;;;;7.37;1.60;;;7.10;99.90;;;;;;5079218;28;20472;-53
2022/02/07 12:00:24;;;;;;;7.67;2.03;;;7.10;99.90;;;;;;5089901;28;20448;-53
2022/02/07 12:02:53;;;;;;;3.60;1.67;;;7.00;99.90;;;;;;5089969;28;20452;-50
2022/02/07 12:05:21;;;;;;;2.30;1.53;;;7.00;99.90;;;;;;5088005;28;20456;-54
2022/02/07 12:08:02;;;;;;;3.13;1.30;;;7.00;99.90;;;;;;5086329;28;20475;-54
2022/02/07 12:10:38;;;;;;;6.43;1.63;;;7.10;99.90;;;;;;5087026;28;20473;-50
2022/02/07 12:13:28;;;;;;;5.73;1.47;;;7.00;99.90;;;;;;5086239;28;20522;-52
2022/02/07 12:15:59;;;;;;;4.77;1.70;;;6.90;99.90;;;;;;5089693;28;20449;-51
2022/02/07 12:18:27;;;;;;;11.87;2.13;;;6.50;99.90;;;;;;5089150;28;20423;-54
2022/02/07 12:20:56;;;;;;;4.13;1.80;;;6.20;99.90;;;;;;5087415;28;20439;-52
2022/02/07 12:23:28;;;;;;;10.70;2.30;;;6.10;99.90;;;;;;5087953;28;20459;-50
2022/02/07 12:26:04;;;;;;;4.20;1.57;;;6.10;99.90;;;;;;5083915;28;20454;-52
2022/02/07 12:28:41;;;;;;;5.63;1.63;;;6.30;99.90;;;;;;5086021;28;20468;-54
2022/02/07 12:31:16;;;;;;;3.10;0.90;;;6.40;99.90;;;;;;5087036;28;20459;-50
2022/02/07 12:33:46;;;;;;;7.80;1.67;;;6.50;99.90;;;;;;5087951;28;20465;-53
2022/02/07 12:36:13;;;;;;;12.90;2.50;;;6.60;99.90;;;;;;5087368;28;20476;-49
2022/02/07 12:38:41;;;;;;;9.67;2.93;;;6.70;99.90;;;;;;5086632;28;20439;-51
2022/02/07 12:41:11;;;;;;;10.80;1.97;;;6.80;99.90;;;;;;5086370;28;20475;-42
2022/02/07 12:43:39;;;;;;;3.47;1.67;;;6.80;99.90;;;;;;5085460;28;20463;-47
2022/02/07 12:46:11;;;;;;;5.03;1.37;;;6.70;99.90;;;;;;5087536;28;20448;-50
2022/02/07 12:48:42;;;;;;;14.67;2.37;;;6.60;99.90;;;;;;5088002;28;20442;-51
2022/02/07 12:51:13;;;;;;;8.77;1.63;;;6.60;99.90;;;;;;5084749;28;20436;-50
2022/02/07 12:53:41;;;;;;;4.40;1.93;;;6.60;99.90;;;;;;5084840;28;20466;-48
2022/02/07 12:56:09;;;;;;;12.90;2.17;;;6.70;99.90;;;;;;5082283;28;20482;-52
2022/02/07 12:58:38;;;;;;;3.07;1.43;;;6.80;99.90;;;;;;5086086;28;20538;-56
2022/02/07 13:01:23;;;;;;;4.97;3.00;;;6.90;99.90;;;;;;5103758;28;20459;-55
2022/02/07 13:03:53;;;;;;;4.30;2.00;;;7.00;99.90;;;;;;5103477;28;20449;-52
2022/02/07 13:06:26;;;;;;;11.33;2.07;;;7.10;99.90;;;;;;5103604;28;20469;-52
2022/02/07 13:08:53;;;;;;;10.53;2.47;;;7.20;99.90;;;;;;5103922;28;20454;-53
2022/02/07 13:11:30;;;;;;;4.40;0.90;;;7.10;99.90;;;;;;5104784;28;20480;-53
2022/02/07 13:13:58;;;;;;;6.80;2.20;;;7.00;99.90;;;;;;5106072;28;20437;-49
2022/02/07 13:16:30;;;;;;;5.97;4.10;;;7.00;99.90;;;;;;5106992;28;20463;-48
2022/02/07 13:19:09;;;;;;;1.87;0.97;;;7.00;99.90;;;;;;5106823;28;20471;-48
2022/02/07 13:21:41;;;;;;;3.23;1.57;;;7.00;99.90;;;;;;5107333;28;20850;-53
2022/02/07 13:24:13;;;;;;;12.17;1.70;;;7.00;99.90;;;;;;5107344;28;20476;-53
2022/02/07 13:26:43;;;;;;;2.30;1.00;;;7.10;99.90;;;;;;5105178;28;20455;-46
2022/02/07 13:29:15;;;;;;;4.97;2.10;;;7.10;99.90;;;;;;5106240;28;20437;-53
2022/02/07 13:31:41;;;;;;;4.20;2.00;;;7.10;99.90;;;;;;5098221;28;20628;-55
2022/02/07 13:34:22;;;;;;;11.63;1.80;;;7.10;99.90;;;;;;5098632;28;20472;-54
2022/02/07 13:36:52;;;;;;;10.60;1.40;;;7.10;99.90;;;;;;5098487;28;20558;-53
2022/02/07 13:39:20;;;;;;;3.70;2.00;;;7.00;99.90;;;;;;5097821;28;20900;-49
2022/02/07 13:42:01;;;;;;;6.33;1.40;;;7.00;99.90;;;;;;5097831;28;20904;-54
2022/02/07 13:44:28;;;;;;;6.10;1.67;;;7.10;99.90;;;;;;5098527;28;20496;-56
2022/02/07 13:47:01;;;;;;;8.00;2.73;;;7.00;99.90;;;;;;5098396;28;20923;-53
2022/02/07 13:49:30;;;;;;;7.40;1.77;;;7.00;99.90;;;;;;5097813;28;20475;-54
2022/02/07 13:51:59;;;;;;;17.87;2.07;;;7.10;99.90;;;;;;5099262;28;20835;-50
2022/02/07 13:54:35;;;;;;;6.07;1.93;;;7.20;99.90;;;;;;5113445;28;20436;-49
2022/02/07 13:57:02;;;;;;;5.43;1.40;;;7.20;99.90;;;;;;5119465;28;20915;-49
2022/02/07 13:59:37;;;;;;;11.17;3.03;;;7.20;99.90;;;;;;5118563;28;20479;-54
2022/02/07 14:02:04;;;;;;;4.50;0.90;;;7.10;99.90;;;;;;5118743;28;20521;-48
2022/02/07 14:04:31;;;;;;;1.10;0.87;;;6.90;99.90;;;;;;5118581;28;20445;-45
2022/02/07 14:07:15;;;;;;;1.73;1.33;;;6.50;99.90;;;;;;5118670;28;20474;-47
2022/02/07 14:09:42;;;;;;;2.17;1.43;;;6.20;99.90;;;;;;5118748;28;20442;-47
2022/02/07 14:12:13;;;;;;;3.63;1.20;;;6.00;99.90;;;;;;5118971;28;20531;-48
2022/02/07 14:14:40;;;;;;;5.40;3.63;;;5.80;99.90;;;;;;5118570;28;20458;-54
2022/02/07 14:17:07;;;;;;;4.67;2.60;;;5.60;99.90;;;;;;5118455;28;20457;-52
2022/02/07 14:19:41;;;;;;;2.73;1.40;;;5.60;99.90;;;;;;5117797;28;20473;-50
2022/02/07 14:22:11;;;;;;;4.33;1.17;;;5.60;99.90;;;;;;5117270;28;20460;-48
2022/02/07 14:24:40;;;;;;;1.57;1.03;;;5.60;99.90;;;;;;5117730;28;20432;-47
2022/02/07 14:27:08;;;;;;;1.47;0.83;;;5.70;99.90;;;;;;5117912;28;20481;-51
2022/02/07 14:29:35;;;;;;;3.50;2.00;;;5.80;99.90;;;;;;5118678;28;20531;-46
2022/02/07 14:32:03;;;;;;;6.97;2.40;;;5.90;99.90;;;;;;5117912;28;20477;-47
2022/02/07 14:34:35;;;;;;;6.80;2.10;;;6.00;99.90;;;;;;5118586;28;20422;-44
2022/02/07 14:37:09;;;;;;;13.83;1.90;;;6.10;99.90;;;;;;5118505;28;20423;-54
2022/02/07 14:39:40;;;;;;;5.80;1.33;;;6.10;99.90;;;;;;5117859;28;20528;-49
2022/02/07 14:42:10;;;;;;;2.47;1.40;;;6.00;99.90;;;;;;5118115;28;20443;-49
2022/02/07 14:44:45;;;;;;;3.00;0.97;;;6.00;99.90;;;;;;5117886;28;20472;-54
2022/02/07 14:47:26;;;;;;;2.00;1.67;;;5.90;99.90;;;;;;5118313;28;20437;-45
2022/02/07 14:49:53;;;;;;;9.77;2.20;;;6.00;99.90;;;;;;5118074;28;20449;-55